Terminal Aerodrome Forecast
Issued by NWS

Home | Current Version | Previous Version | Text Only | Print | Product List | Glossary On
Versions: 1 2 3 4 5 6 7 8 9 10 11 12 13 14 15 16 17 18 19 20 21 22
416
FTUS46 KMFR 201959 AAA
TAFOTH
TAF AMD
KOTH 201959Z 2020/2118 23011KT P6SM SCT015 OVC035
      TEMPO 2020/2022 -SHRA BKN015
     FM202200 21010KT P6SM -SHRA SCT020 OVC040
     FM210300 VRB03KT P6SM RA BKN020 OVC035
     FM211700 24011KT P6SM -SHRA OVC020=

USA.gov is the U.S. government's official web portal to all federal, state and local government web resources and services.